Time;durP1;ratioP1;P1;durP2;ratioP2;P2;SDS_P1;SDS_P2;PMS_P1;PMS_P2;Temp;Humidity;BMP_temperature;BMP_pressure;BME280_temperature;BME280_humidity;BME280_pressure;Samples;Min_cycle;Max_cycle;Signal;HPM_P1;HPM_P2
2023/12/09 00:00:05;;;;;;;36.43;15.90;;;;;;;;;;5030008;28;20409;-71
2023/12/09 00:02:31;;;;;;;38.07;16.83;;;;;;;;;;5029227;28;20029;-70
2023/12/09 00:04:56;;;;;;;41.80;17.20;;;;;;;;;;5031053;28;20432;-70
2023/12/09 00:07:22;;;;;;;37.27;17.63;;;;;;;;;;5031200;28;20033;-69
2023/12/09 00:09:47;;;;;;;37.67;17.40;;;;;;;;;;5031011;28;20026;-71
2023/12/09 00:12:13;;;;;;;35.93;17.20;;;;;;;;;;5030236;28;20457;-70
2023/12/09 00:14:38;;;;;;;36.77;16.27;;;;;;;;;;5030945;28;20029;-72
2023/12/09 00:17:04;;;;;;;37.67;16.20;;;;;;;;;;5030225;28;20108;-70
2023/12/09 00:19:29;;;;;;;37.97;15.90;;;;;;;;;;5030673;28;20396;-69
2023/12/09 00:21:55;;;;;;;34.37;16.30;;;;;;;;;;5028897;28;20463;-71
2023/12/09 00:24:20;;;;;;;37.43;16.20;;;;;;;;;;5031001;28;20029;-68
2023/12/09 00:26:46;;;;;;;35.10;17.03;;;;;;;;;;5029364;28;20470;-68
2023/12/09 00:29:11;;;;;;;35.40;15.97;;;;;;;;;;5030725;28;20363;-68
2023/12/09 00:31:37;;;;;;;41.07;17.30;;;;;;;;;;5020620;28;20034;-69
2023/12/09 00:34:02;;;;;;;42.70;17.67;;;;;;;;;;5009304;28;20038;-68
2023/12/09 00:36:28;;;;;;;38.83;16.63;;;;;;;;;;5010886;28;20032;-69
2023/12/09 00:38:53;;;;;;;42.47;17.73;;;;;;;;;;5010719;28;20454;-68
2023/12/09 00:41:19;;;;;;;38.57;17.17;;;;;;;;;;5014713;28;20029;-69
2023/12/09 00:43:44;;;;;;;40.87;16.37;;;;;;;;;;5030419;28;20061;-69
2023/12/09 00:46:10;;;;;;;37.37;16.43;;;;;;;;;;5028796;28;20021;-69
2023/12/09 00:48:36;;;;;;;40.97;16.33;;;;;;;;;;5028829;28;20075;-68
2023/12/09 00:51:02;;;;;;;39.90;16.70;;;;;;;;;;5026881;28;20164;-69
2023/12/09 00:53:27;;;;;;;37.73;17.13;;;;;;;;;;5010642;28;20089;-69
2023/12/09 00:55:53;;;;;;;39.83;17.87;;;;;;;;;;5009186;28;20057;-69
2023/12/09 00:58:18;;;;;;;35.93;15.27;;;;;;;;;;5010098;28;20057;-69
2023/12/09 01:00:44;;;;;;;33.33;16.17;;;;;;;;;;5009400;28;20033;-70
2023/12/09 01:03:09;;;;;;;36.87;17.33;;;;;;;;;;5010502;28;20045;-70
2023/12/09 01:05:35;;;;;;;32.20;15.47;;;;;;;;;;5009132;28;20091;-68
2023/12/09 01:08:01;;;;;;;38.20;15.83;;;;;;;;;;5012666;28;20030;-69
2023/12/09 01:10:26;;;;;;;28.20;14.50;;;;;;;;;;5016735;28;20033;-70
2023/12/09 01:12:52;;;;;;;35.37;15.33;;;;;;;;;;5031031;28;20036;-70
2023/12/09 01:15:18;;;;;;;35.43;16.00;;;;;;;;;;5030280;28;20630;-70
2023/12/09 01:17:44;;;;;;;38.43;17.63;;;;;;;;;;5029847;28;20064;-70
2023/12/09 01:20:10;;;;;;;36.80;17.63;;;;;;;;;;5029764;28;20548;-70
2023/12/09 01:22:35;;;;;;;41.90;16.63;;;;;;;;;;5014110;28;20041;-70
2023/12/09 01:25:01;;;;;;;39.53;17.00;;;;;;;;;;5008236;28;20351;-68
2023/12/09 01:27:26;;;;;;;33.97;14.83;;;;;;;;;;5010018;28;20073;-69
2023/12/09 01:29:52;;;;;;;33.77;15.23;;;;;;;;;;5009339;28;20033;-68
2023/12/09 01:32:17;;;;;;;36.63;16.47;;;;;;;;;;5020435;28;20025;-69
2023/12/09 01:34:44;;;;;;;40.17;16.37;;;;;;;;;;5029316;28;20488;-70
2023/12/09 01:37:10;;;;;;;36.07;15.80;;;;;;;;;;5029246;28;20025;-67
2023/12/09 01:39:38;;;;;;;35.67;16.83;;;;;;;;;;5029347;28;20112;-70
2023/12/09 01:42:03;;;;;;;34.17;16.03;;;;;;;;;;5018763;28;20026;-69
2023/12/09 01:44:29;;;;;;;31.50;14.60;;;;;;;;;;5009434;28;20037;-69
2023/12/09 01:46:55;;;;;;;30.67;14.17;;;;;;;;;;5008008;28;20041;-68
2023/12/09 01:49:20;;;;;;;32.73;14.30;;;;;;;;;;5009163;28;20034;-69
2023/12/09 01:51:46;;;;;;;33.47;16.17;;;;;;;;;;5009558;28;20021;-70
2023/12/09 01:54:12;;;;;;;33.27;15.23;;;;;;;;;;5007732;28;20084;-70
2023/12/09 01:56:38;;;;;;;35.83;16.13;;;;;;;;;;5009303;28;20537;-67
2023/12/09 01:59:04;;;;;;;31.70;15.90;;;;;;;;;;5007924;28;20386;-69
2023/12/09 02:01:33;;;;;;;37.13;16.10;;;;;;;;;;5010500;28;20030;-68
2023/12/09 02:03:58;;;;;;;36.50;16.17;;;;;;;;;;5010479;28;20031;-67
2023/12/09 02:06:24;;;;;;;37.17;14.10;;;;;;;;;;5009323;28;20034;-68
2023/12/09 02:08:50;;;;;;;31.30;13.83;;;;;;;;;;5009215;28;20034;-68
2023/12/09 02:11:23;;;;;;;34.30;16.23;;;;;;;;;;5011913;28;20021;-69
2023/12/09 02:14:17;;;;;;;33.83;14.60;;;;;;;;;;5029376;28;20022;-70
2023/12/09 02:16:51;;;;;;;35.10;15.37;;;;;;;;;;5028095;28;20108;-70
2023/12/09 02:19:17;;;;;;;37.23;16.23;;;;;;;;;;5029857;28;20028;-68
2023/12/09 02:22:08;;;;;;;36.47;16.80;;;;;;;;;;5022986;28;20048;-69
2023/12/09 02:24:34;;;;;;;36.33;15.63;;;;;;;;;;5009285;28;20080;-69
2023/12/09 02:27:14;;;;;;;35.17;14.77;;;;;;;;;;5008053;28;20372;-69
2023/12/09 02:30:03;;;;;;;35.70;15.20;;;;;;;;;;5011269;28;20125;-69
2023/12/09 02:32:33;;;;;;;31.60;14.23;;;;;;;;;;5028370;28;20033;-70
2023/12/09 02:35:00;;;;;;;31.80;14.70;;;;;;;;;;5031471;28;20021;-69
2023/12/09 02:37:27;;;;;;;38.50;15.17;;;;;;;;;;5030368;28;20108;-68
2023/12/09 02:39:53;;;;;;;33.37;14.33;;;;;;;;;;5028412;28;20113;-68
2023/12/09 02:42:19;;;;;;;33.53;15.57;;;;;;;;;;5021196;28;20026;-68
2023/12/09 02:44:45;;;;;;;32.40;15.10;;;;;;;;;;5012856;28;20529;-69
2023/12/09 02:47:13;;;;;;;37.57;16.20;;;;;;;;;;5011234;28;20034;-67
2023/12/09 02:49:40;;;;;;;36.53;16.37;;;;;;;;;;5012692;28;20030;-69
2023/12/09 02:52:05;;;;;;;43.63;17.73;;;;;;;;;;5012865;28;20034;-69
2023/12/09 02:54:31;;;;;;;36.07;14.83;;;;;;;;;;5011493;28;20028;-69
2023/12/09 02:56:56;;;;;;;33.57;15.80;;;;;;;;;;5011303;28;20473;-68
2023/12/09 02:59:22;;;;;;;36.70;16.43;;;;;;;;;;5012295;28;20056;-70
2023/12/09 03:01:47;;;;;;;38.33;16.40;;;;;;;;;;5013603;28;20030;-68
2023/12/09 03:04:13;;;;;;;38.43;17.13;;;;;;;;;;5012450;28;20586;-70
2023/12/09 03:06:39;;;;;;;36.20;16.03;;;;;;;;;;5012480;28;20543;-68
2023/12/09 03:09:04;;;;;;;38.10;17.17;;;;;;;;;;5012358;28;20609;-69
2023/12/09 03:11:30;;;;;;;34.93;16.47;;;;;;;;;;5014337;28;20493;-70
2023/12/09 03:13:55;;;;;;;32.00;15.77;;;;;;;;;;5030728;28;20060;-69
2023/12/09 03:16:21;;;;;;;36.70;16.70;;;;;;;;;;5030574;28;20049;-69
2023/12/09 03:18:46;;;;;;;34.83;15.30;;;;;;;;;;5030765;28;20848;-68
2023/12/09 03:21:15;;;;;;;38.40;16.70;;;;;;;;;;5030801;28;20567;-70
2023/12/09 03:23:42;;;;;;;37.97;17.80;;;;;;;;;;5024082;28;20230;-69
2023/12/09 03:26:16;;;;;;;40.70;15.80;;;;;;;;;;5012834;28;20030;-71
2023/12/09 03:28:42;;;;;;;37.03;16.03;;;;;;;;;;5016604;28;20382;-69
2023/12/09 03:31:10;;;;;;;40.87;16.80;;;;;;;;;;5010567;28;20076;-70
2023/12/09 03:33:36;;;;;;;37.07;15.93;;;;;;;;;;5010561;28;20026;-69
2023/12/09 03:36:02;;;;;;;38.57;16.47;;;;;;;;;;5019330;28;20035;-69
2023/12/09 03:38:28;;;;;;;35.03;15.40;;;;;;;;;;5031316;28;20076;-68
2023/12/09 03:40:53;;;;;;;34.33;16.00;;;;;;;;;;5030216;28;20450;-69
2023/12/09 03:43:19;;;;;;;33.20;14.40;;;;;;;;;;5030311;28;20029;-69
2023/12/09 03:45:46;;;;;;;39.53;17.17;;;;;;;;;;5030199;28;20087;-69
2023/12/09 03:48:11;;;;;;;40.17;16.67;;;;;;;;;;5024710;28;20120;-68
2023/12/09 03:50:37;;;;;;;39.13;17.27;;;;;;;;;;5030092;28;20417;-69
2023/12/09 03:53:04;;;;;;;32.90;14.97;;;;;;;;;;5031085;28;20107;-69
2023/12/09 03:55:29;;;;;;;39.77;16.33;;;;;;;;;;5029528;28;20021;-69
2023/12/09 03:57:55;;;;;;;35.97;14.77;;;;;;;;;;5030086;28;20030;-68
2023/12/09 04:00:22;;;;;;;35.73;16.53;;;;;;;;;;5019743;28;20041;-69
2023/12/09 04:02:48;;;;;;;38.30;16.43;;;;;;;;;;5028510;28;20025;-69
2023/12/09 04:05:14;;;;;;;38.17;15.57;;;;;;;;;;5046038;28;20060;-69
2023/12/09 04:07:42;;;;;;;36.90;16.83;;;;;;;;;;5029744;28;20057;-69
2023/12/09 04:10:09;;;;;;;37.70;16.83;;;;;;;;;;5029561;28;20072;-68
2023/12/09 04:12:35;;;;;;;40.73;17.37;;;;;;;;;;5035140;28;20053;-69
2023/12/09 04:15:01;;;;;;;34.13;15.20;;;;;;;;;;5013569;28;20508;-70
2023/12/09 04:17:27;;;;;;;38.77;16.23;;;;;;;;;;5009345;28;20100;-69
2023/12/09 04:19:52;;;;;;;44.03;18.77;;;;;;;;;;5010992;28;20014;-70
2023/12/09 04:22:18;;;;;;;37.03;15.70;;;;;;;;;;5010524;28;20026;-69
2023/12/09 04:24:43;;;;;;;36.33;15.73;;;;;;;;;;5010704;28;20034;-69
2023/12/09 04:27:09;;;;;;;37.03;17.90;;;;;;;;;;5010743;28;20505;-71
2023/12/09 04:29:34;;;;;;;43.50;17.90;;;;;;;;;;5011008;28;20052;-69
2023/12/09 04:32:00;;;;;;;39.10;17.13;;;;;;;;;;5009489;28;20025;-68
2023/12/09 04:34:26;;;;;;;35.93;16.00;;;;;;;;;;5009131;28;20152;-69
2023/12/09 04:36:51;;;;;;;34.60;16.63;;;;;;;;;;5025060;28;20056;-69
2023/12/09 04:39:17;;;;;;;43.97;17.93;;;;;;;;;;5029176;28;20032;-68
2023/12/09 04:41:43;;;;;;;33.83;15.93;;;;;;;;;;5030209;28;20098;-68
2023/12/09 04:44:08;;;;;;;31.73;16.47;;;;;;;;;;5028874;28;20029;-70
2023/12/09 04:46:34;;;;;;;40.07;17.40;;;;;;;;;;5029800;28;20048;-69
2023/12/09 04:49:00;;;;;;;35.10;16.60;;;;;;;;;;5012843;28;20128;-70
2023/12/09 04:51:26;;;;;;;38.67;17.23;;;;;;;;;;5008752;28;20045;-71
2023/12/09 04:53:51;;;;;;;38.63;17.70;;;;;;;;;;5010511;28;20026;-69
2023/12/09 04:56:19;;;;;;;40.27;17.17;;;;;;;;;;5010231;28;20049;-70
2023/12/09 04:58:45;;;;;;;37.70;15.57;;;;;;;;;;5010565;28;20022;-69
2023/12/09 05:01:11;;;;;;;36.07;17.60;;;;;;;;;;5023223;28;20034;-70
2023/12/09 05:03:36;;;;;;;41.63;17.57;;;;;;;;;;5008450;28;20125;-68
2023/12/09 05:06:04;;;;;;;34.13;16.07;;;;;;;;;;5010202;28;20855;-70
2023/12/09 05:08:30;;;;;;;41.40;17.40;;;;;;;;;;5008485;28;20117;-69
2023/12/09 05:10:56;;;;;;;44.17;18.37;;;;;;;;;;5010214;28;20026;-69
2023/12/09 05:13:22;;;;;;;40.17;17.87;;;;;;;;;;5028977;28;20036;-69
2023/12/09 05:15:48;;;;;;;45.37;17.70;;;;;;;;;;5029948;28;20025;-70
2023/12/09 05:18:14;;;;;;;31.37;14.43;;;;;;;;;;5028721;28;20029;-70
2023/12/09 05:20:41;;;;;;;41.17;16.73;;;;;;;;;;5029710;28;20025;-70
2023/12/09 05:23:06;;;;;;;38.83;16.50;;;;;;;;;;5029732;28;20492;-70
2023/12/09 05:25:32;;;;;;;34.23;16.63;;;;;;;;;;5013810;28;20038;-69
2023/12/09 05:27:58;;;;;;;35.73;15.87;;;;;;;;;;5008325;28;20505;-67
2023/12/09 05:30:24;;;;;;;39.80;16.17;;;;;;;;;;5008040;28;20029;-68
2023/12/09 05:32:49;;;;;;;38.10;17.23;;;;;;;;;;5008363;28;20109;-68
2023/12/09 05:35:15;;;;;;;39.87;16.87;;;;;;;;;;5020826;28;20437;-68
2023/12/09 05:37:41;;;;;;;37.90;16.63;;;;;;;;;;5029791;28;20036;-70
2023/12/09 05:40:07;;;;;;;43.13;17.60;;;;;;;;;;5027920;28;20025;-68
2023/12/09 05:42:33;;;;;;;35.17;17.70;;;;;;;;;;5028630;28;20120;-70
2023/12/09 05:44:58;;;;;;;39.60;17.87;;;;;;;;;;5033055;28;20113;-69
2023/12/09 05:47:25;;;;;;;35.20;15.73;;;;;;;;;;5031362;28;20022;-69
2023/12/09 05:49:50;;;;;;;35.57;16.43;;;;;;;;;;5030188;28;20109;-70
2023/12/09 05:52:16;;;;;;;37.80;16.70;;;;;;;;;;5027663;28;20120;-71
2023/12/09 05:54:42;;;;;;;36.23;16.13;;;;;;;;;;5028027;28;20545;-70
2023/12/09 05:57:07;;;;;;;39.77;16.00;;;;;;;;;;5028874;28;20049;-68
2023/12/09 05:59:33;;;;;;;48.53;20.40;;;;;;;;;;5028375;28;20033;-68
2023/12/09 06:01:58;;;;;;;35.30;16.10;;;;;;;;;;5017367;28;20036;-68
2023/12/09 06:04:25;;;;;;;40.83;18.07;;;;;;;;;;5009517;28;20029;-69
2023/12/09 06:06:51;;;;;;;41.57;17.37;;;;;;;;;;5009931;28;20034;-68
2023/12/09 06:09:17;;;;;;;41.77;17.50;;;;;;;;;;5009484;28;20378;-68
2023/12/09 06:11:42;;;;;;;41.67;17.47;;;;;;;;;;5024394;28;20044;-70
2023/12/09 06:14:08;;;;;;;38.03;17.00;;;;;;;;;;5029381;28;20049;-69
2023/12/09 06:16:34;;;;;;;35.03;16.57;;;;;;;;;;5030819;28;20473;-69
2023/12/09 06:18:59;;;;;;;37.33;17.87;;;;;;;;;;5031806;28;20013;-69
2023/12/09 06:21:25;;;;;;;38.90;16.97;;;;;;;;;;5032768;28;20094;-69
2023/12/09 06:23:52;;;;;;;44.70;17.60;;;;;;;;;;5016590;28;20108;-68
2023/12/09 06:26:20;;;;;;;36.10;16.20;;;;;;;;;;5012122;28;20026;-69
2023/12/09 06:28:46;;;;;;;41.43;17.50;;;;;;;;;;5015203;28;20385;-68
2023/12/09 06:31:11;;;;;;;37.03;16.47;;;;;;;;;;5016510;28;20112;-70
2023/12/09 06:33:37;;;;;;;39.80;16.73;;;;;;;;;;5015951;28;20044;-69
2023/12/09 06:36:04;;;;;;;40.10;16.87;;;;;;;;;;5031104;28;20060;-70
2023/12/09 06:38:29;;;;;;;39.53;15.80;;;;;;;;;;5031393;28;20041;-70
2023/12/09 06:40:55;;;;;;;34.67;17.07;;;;;;;;;;5032575;28;20444;-70
2023/12/09 06:43:21;;;;;;;45.73;20.80;;;;;;;;;;5032792;28;20025;-69
2023/12/09 06:45:47;;;;;;;39.13;17.97;;;;;;;;;;5031286;28;20044;-70
2023/12/09 06:48:13;;;;;;;37.23;16.63;;;;;;;;;;5012615;28;20067;-70
2023/12/09 06:50:39;;;;;;;39.00;18.47;;;;;;;;;;5010957;28;20647;-70
2023/12/09 06:53:05;;;;;;;43.40;16.97;;;;;;;;;;5010852;28;20466;-69
2023/12/09 06:55:30;;;;;;;47.00;17.70;;;;;;;;;;5012880;28;20080;-70
2023/12/09 06:57:56;;;;;;;41.30;18.27;;;;;;;;;;5011958;28;20553;-70
2023/12/09 07:00:21;;;;;;;36.73;17.90;;;;;;;;;;5011070;28;20433;-69
2023/12/09 07:02:47;;;;;;;37.63;16.33;;;;;;;;;;5029165;28;20438;-68
2023/12/09 07:05:13;;;;;;;40.13;16.67;;;;;;;;;;5033243;28;20498;-67
2023/12/09 07:07:40;;;;;;;40.40;18.50;;;;;;;;;;5031965;28;20060;-69
2023/12/09 07:10:07;;;;;;;37.93;15.57;;;;;;;;;;5029413;28;20486;-68
2023/12/09 07:12:32;;;;;;;34.67;16.50;;;;;;;;;;5013846;28;20404;-68
2023/12/09 07:15:00;;;;;;;41.50;18.17;;;;;;;;;;5012465;28;20034;-70
2023/12/09 07:17:26;;;;;;;38.03;16.20;;;;;;;;;;5012490;28;20076;-68
2023/12/09 07:19:56;;;;;;;38.90;17.17;;;;;;;;;;4996181;28;20481;-67
2023/12/09 07:22:28;;;;;;;42.80;17.63;;;;;;;;;;5012608;28;20018;-68
2023/12/09 07:24:54;;;;;;;40.40;18.08;;;;;;;;;;5011967;28;20488;-70
2023/12/09 07:27:19;;;;;;;36.97;20.73;;;;;;;;;;5011802;28;20022;-71
2023/12/09 07:29:45;;;;;;;37.37;19.07;;;;;;;;;;5012044;28;20083;-68
2023/12/09 07:32:11;;;;;;;40.67;17.20;;;;;;;;;;5013077;28;20041;-68
2023/12/09 07:34:36;;;;;;;40.93;17.23;;;;;;;;;;5016077;28;20029;-69
2023/12/09 07:37:03;;;;;;;38.13;16.43;;;;;;;;;;5031327;28;20040;-67
2023/12/09 07:39:28;;;;;;;45.83;18.13;;;;;;;;;;5031191;28;20021;-68
2023/12/09 07:41:54;;;;;;;43.70;18.70;;;;;;;;;;5031433;28;20504;-67
2023/12/09 07:44:20;;;;;;;36.57;17.07;;;;;;;;;;5031578;28;20021;-70
2023/12/09 07:46:46;;;;;;;42.30;16.60;;;;;;;;;;5031795;28;20036;-70
2023/12/09 07:49:13;;;;;;;41.67;18.07;;;;;;;;;;5012222;28;20425;-71
2023/12/09 07:51:39;;;;;;;39.23;16.90;;;;;;;;;;5011478;28;20117;-68
2023/12/09 07:54:04;;;;;;;43.63;18.50;;;;;;;;;;4995419;28;20030;-69
2023/12/09 07:56:30;;;;;;;38.80;16.80;;;;;;;;;;5011581;28;20111;-68
2023/12/09 07:58:56;;;;;;;42.10;16.60;;;;;;;;;;5013506;28;20018;-68
2023/12/09 08:01:22;;;;;;;39.73;17.67;;;;;;;;;;5027112;28;20030;-70
2023/12/09 08:03:48;;;;;;;37.77;17.57;;;;;;;;;;5031268;28;20021;-68
2023/12/09 08:06:14;;;;;;;38.27;17.20;;;;;;;;;;5031672;28;20028;-69
2023/12/09 08:08:39;;;;;;;42.43;17.93;;;;;;;;;;5032327;28;20022;-70
2023/12/09 08:11:05;;;;;;;43.53;17.40;;;;;;;;;;5026625;28;20497;-69
2023/12/09 08:13:31;;;;;;;42.33;19.43;;;;;;;;;;5011066;28;20041;-69
2023/12/09 08:15:57;;;;;;;46.47;18.80;;;;;;;;;;5011461;28;20026;-68
2023/12/09 08:18:24;;;;;;;43.50;19.77;;;;;;;;;;5012668;28;20029;-74
2023/12/09 08:20:50;;;;;;;45.93;18.87;;;;;;;;;;5012725;28;20033;-70
2023/12/09 08:23:16;;;;;;;41.23;17.63;;;;;;;;;;5012926;28;20025;-67
2023/12/09 08:25:43;;;;;;;41.07;17.43;;;;;;;;;;4994856;28;20057;-68
2023/12/09 08:28:09;;;;;;;40.63;18.17;;;;;;;;;;5011542;28;20040;-68
2023/12/09 08:30:35;;;;;;;40.50;17.10;;;;;;;;;;5011264;28;20385;-69
2023/12/09 08:33:01;;;;;;;48.13;18.07;;;;;;;;;;5012540;28;20040;-69
2023/12/09 08:35:26;;;;;;;44.30;19.20;;;;;;;;;;5017567;28;20120;-69
2023/12/09 08:37:53;;;;;;;41.40;17.10;;;;;;;;;;5032109;28;20025;-67
2023/12/09 08:40:20;;;;;;;41.70;18.27;;;;;;;;;;5031673;28;20036;-68
2023/12/09 08:42:46;;;;;;;36.27;15.93;;;;;;;;;;5032389;28;20053;-72
2023/12/09 08:45:14;;;;;;;37.37;17.20;;;;;;;;;;5031702;28;20116;-68
2023/12/09 08:47:40;;;;;;;44.43;17.43;;;;;;;;;;5022837;28;20108;-67
2023/12/09 08:50:08;;;;;;;44.77;18.70;;;;;;;;;;5010625;28;20126;-68
2023/12/09 08:52:34;;;;;;;44.73;18.47;;;;;;;;;;5011035;28;20040;-68
2023/12/09 08:55:01;;;;;;;44.10;19.57;;;;;;;;;;5011431;28;20470;-68
2023/12/09 08:57:27;;;;;;;40.33;16.97;;;;;;;;;;5012850;28;20053;-69
2023/12/09 08:59:53;;;;;;;41.30;18.50;;;;;;;;;;5012579;28;20025;-70
2023/12/09 09:02:22;;;;;;;42.83;17.33;;;;;;;;;;5011941;28;20026;-69
2023/12/09 09:04:47;;;;;;;39.57;18.00;;;;;;;;;;5011148;28;20030;-70
2023/12/09 09:07:15;;;;;;;41.47;17.80;;;;;;;;;;5012761;28;20038;-69
2023/12/09 09:09:40;;;;;;;39.80;18.57;;;;;;;;;;5012183;28;20544;-69
2023/12/09 09:12:08;;;;;;;35.50;17.87;;;;;;;;;;5012497;28;20034;-69
2023/12/09 09:14:36;;;;;;;40.00;17.43;;;;;;;;;;5011524;28;20093;-69
2023/12/09 09:17:05;;;;;;;46.70;19.13;;;;;;;;;;5011255;28;20022;-70
2023/12/09 09:19:31;;;;;;;37.37;18.30;;;;;;;;;;5011434;28;20124;-69
2023/12/09 09:21:57;;;;;;;43.50;19.43;;;;;;;;;;5012796;28;20542;-69
2023/12/09 09:24:23;;;;;;;43.50;18.93;;;;;;;;;;5016768;28;20044;-68
2023/12/09 09:26:48;;;;;;;47.97;18.80;;;;;;;;;;4994992;28;20513;-69
2023/12/09 09:29:14;;;;;;;38.93;17.83;;;;;;;;;;5012958;28;20393;-67
2023/12/09 09:31:39;;;;;;;37.93;16.13;;;;;;;;;;5012809;28;20018;-68
2023/12/09 09:34:06;;;;;;;39.57;17.57;;;;;;;;;;5011237;28;20025;-69
2023/12/09 09:36:31;;;;;;;39.30;17.33;;;;;;;;;;5012092;28;20136;-68
2023/12/09 09:38:58;;;;;;;44.93;20.57;;;;;;;;;;5012963;28;20045;-67
2023/12/09 09:41:39;;;;;;;40.47;18.67;;;;;;;;;;5011536;28;20030;-69
2023/12/09 09:44:14;;;;;;;43.00;17.13;;;;;;;;;;5011328;28;20026;-68
2023/12/09 09:46:41;;;;;;;44.30;19.60;;;;;;;;;;5012753;28;20133;-75
2023/12/09 09:49:10;;;;;;;37.33;16.87;;;;;;;;;;5014125;28;20450;-75
2023/12/09 09:51:37;;;;;;;36.23;16.97;;;;;;;;;;5016834;28;20021;-73
2023/12/09 09:54:10;;;;;;;41.40;17.27;;;;;;;;;;5020454;28;20026;-71
2023/12/09 09:56:37;;;;;;;41.13;17.73;;;;;;;;;;5018925;28;20109;-71
2023/12/09 09:59:04;;;;;;;40.00;18.87;;;;;;;;;;5030495;28;20041;-74
2023/12/09 10:01:32;;;;;;;40.93;17.47;;;;;;;;;;5027498;28;20052;-73
2023/12/09 10:03:58;;;;;;;40.13;17.77;;;;;;;;;;5051399;28;20022;-74
2023/12/09 10:06:24;;;;;;;38.30;17.30;;;;;;;;;;5033690;28;20539;-75
2023/12/09 10:08:51;;;;;;;41.50;22.33;;;;;;;;;;5051257;28;20036;-74
2023/12/09 10:11:16;;;;;;;43.30;19.27;;;;;;;;;;5019762;28;20029;-73
2023/12/09 10:13:44;;;;;;;41.00;18.80;;;;;;;;;;5013134;28;20018;-74
2023/12/09 10:16:10;;;;;;;35.57;16.70;;;;;;;;;;5012030;28;20049;-74
2023/12/09 10:18:48;;;;;;;36.40;16.87;;;;;;;;;;5011048;28;20398;-73
2023/12/09 10:21:15;;;;;;;40.00;16.33;;;;;;;;;;5014028;28;20022;-73
2023/12/09 10:23:45;;;;;;;37.10;16.70;;;;;;;;;;5012665;28;20044;-74
2023/12/09 10:26:12;;;;;;;33.80;16.53;;;;;;;;;;5013234;28;20370;-73
2023/12/09 10:28:37;;;;;;;35.13;17.60;;;;;;;;;;5014385;28;20548;-73
2023/12/09 10:31:08;;;;;;;37.53;17.13;;;;;;;;;;5011967;28;20036;-73
2023/12/09 10:33:34;;;;;;;39.23;17.90;;;;;;;;;;5014556;28;20022;-75
2023/12/09 10:36:01;;;;;;;43.60;17.80;;;;;;;;;;5013902;28;20045;-74
2023/12/09 10:38:27;;;;;;;38.97;18.13;;;;;;;;;;5012960;28;20034;-74
2023/12/09 10:40:53;;;;;;;39.63;17.33;;;;;;;;;;5022932;28;20022;-75
2023/12/09 10:43:20;;;;;;;41.67;18.90;;;;;;;;;;5004171;28;20044;-71
2023/12/09 10:45:47;;;;;;;42.43;18.23;;;;;;;;;;5014294;28;20022;-74
2023/12/09 10:48:13;;;;;;;43.80;16.60;;;;;;;;;;5012439;28;20095;-74
2023/12/09 10:50:39;;;;;;;40.30;17.30;;;;;;;;;;5013849;28;20076;-73
2023/12/09 10:53:05;;;;;;;40.87;16.90;;;;;;;;;;5012502;28;20116;-74
2023/12/09 10:55:31;;;;;;;38.20;16.83;;;;;;;;;;5012421;28;20242;-74
2023/12/09 10:57:59;;;;;;;40.87;17.70;;;;;;;;;;4997366;28;20064;-76
2023/12/09 11:00:25;;;;;;;37.17;18.73;;;;;;;;;;5034107;28;20366;-74
2023/12/09 11:02:56;;;;;;;39.47;18.57;;;;;;;;;;5018012;28;20029;-72
2023/12/09 11:05:22;;;;;;;42.23;17.77;;;;;;;;;;5015047;28;20034;-73
2023/12/09 11:07:49;;;;;;;39.00;17.90;;;;;;;;;;5015096;28;20132;-75
2023/12/09 11:10:15;;;;;;;38.83;18.73;;;;;;;;;;5015612;28;20032;-75
2023/12/09 11:12:42;;;;;;;42.97;20.53;;;;;;;;;;5015469;28;20040;-75
2023/12/09 11:15:14;;;;;;;44.10;17.70;;;;;;;;;;5015821;28;20036;-74
2023/12/09 11:17:45;;;;;;;39.67;17.87;;;;;;;;;;5035597;28;20521;-73
2023/12/09 11:20:16;;;;;;;39.10;17.90;;;;;;;;;;5035947;28;20099;-75
2023/12/09 11:22:44;;;;;;;38.13;18.02;;;;;;;;;;5036752;28;20030;-76
2023/12/09 11:25:29;;;;;;;38.77;17.40;;;;;;;;;;5036166;28;20040;-73
2023/12/09 11:27:58;;;;;;;41.93;17.63;;;;;;;;;;5034083;28;20025;-75
2023/12/09 11:30:34;;;;;;;43.40;19.47;;;;;;;;;;5034144;28;20029;-74
2023/12/09 11:33:00;;;;;;;36.30;17.17;;;;;;;;;;5017394;28;20036;-75
2023/12/09 11:35:27;;;;;;;42.97;18.73;;;;;;;;;;5033169;28;20027;-74
2023/12/09 11:37:59;;;;;;;36.63;17.17;;;;;;;;;;5034375;28;20029;-75
2023/12/09 11:40:30;;;;;;;42.60;18.57;;;;;;;;;;5035059;28;20056;-74
2023/12/09 11:42:57;;;;;;;39.53;16.97;;;;;;;;;;5027541;28;20040;-73
2023/12/09 11:45:23;;;;;;;37.10;16.63;;;;;;;;;;5014400;28;20113;-73
2023/12/09 11:47:53;;;;;;;37.53;17.47;;;;;;;;;;5012413;28;20113;-74
2023/12/09 11:50:19;;;;;;;44.33;18.90;;;;;;;;;;5013768;28;20085;-76
2023/12/09 11:52:46;;;;;;;34.57;17.57;;;;;;;;;;5015952;28;20361;-76
2023/12/09 11:55:14;;;;;;;36.83;16.83;;;;;;;;;;5032831;28;20124;-74
2023/12/09 11:57:40;;;;;;;30.37;15.60;;;;;;;;;;5032123;28;20057;-73
2023/12/09 12:00:08;;;;;;;34.87;15.77;;;;;;;;;;5033975;28;20025;-72
2023/12/09 12:02:34;;;;;;;34.90;16.57;;;;;;;;;;5035416;28;20109;-75
2023/12/09 12:05:00;;;;;;;40.63;17.47;;;;;;;;;;5027764;28;20124;-74
2023/12/09 12:07:26;;;;;;;32.50;16.23;;;;;;;;;;5026419;28;20427;-76
2023/12/09 12:09:52;;;;;;;37.37;16.17;;;;;;;;;;5033155;28;20061;-76
2023/12/09 12:12:19;;;;;;;29.60;15.57;;;;;;;;;;5034109;28;20029;-71
2023/12/09 12:14:46;;;;;;;29.17;14.27;;;;;;;;;;5022283;28;20018;-69
2023/12/09 12:17:12;;;;;;;32.20;16.40;;;;;;;;;;4995455;28;20524;-69
2023/12/09 12:19:39;;;;;;;29.20;15.00;;;;;;;;;;5011788;28;20029;-69
2023/12/09 12:22:06;;;;;;;33.90;14.93;;;;;;;;;;5020015;28;20029;-68
2023/12/09 12:24:43;;;;;;;31.27;14.40;;;;;;;;;;5034015;28;20044;-70
2023/12/09 12:27:10;;;;;;;37.50;15.30;;;;;;;;;;5034441;28;20025;-70
2023/12/09 12:29:39;;;;;;;32.13;14.60;;;;;;;;;;5035120;28;20047;-71
2023/12/09 12:32:14;;;;;;;35.63;14.93;;;;;;;;;;5024968;28;20025;-70
2023/12/09 12:34:47;;;;;;;32.90;15.10;;;;;;;;;;5012227;28;20033;-71
2023/12/09 12:37:13;;;;;;;33.73;15.10;;;;;;;;;;5012837;28;20026;-70
2023/12/09 12:39:41;;;;;;;34.47;15.53;;;;;;;;;;5012326;28;20140;-71
2023/12/09 12:42:08;;;;;;;30.80;14.40;;;;;;;;;;5011644;28;20061;-70
2023/12/09 12:44:34;;;;;;;37.17;15.70;;;;;;;;;;5022962;28;20033;-71
2023/12/09 12:47:00;;;;;;;38.10;17.27;;;;;;;;;;5031059;28;20110;-70
2023/12/09 12:49:26;;;;;;;40.97;20.57;;;;;;;;;;5033322;28;20487;-70
2023/12/09 12:51:54;;;;;;;36.83;19.70;;;;;;;;;;5036055;28;20082;-67
2023/12/09 12:54:20;;;;;;;36.67;18.23;;;;;;;;;;5035006;28;20500;-68
2023/12/09 12:56:45;;;;;;;30.50;14.27;;;;;;;;;;5035183;28;20045;-69
2023/12/09 12:59:11;;;;;;;32.37;14.33;;;;;;;;;;5033400;28;20032;-71
2023/12/09 13:01:37;;;;;;;28.63;12.80;;;;;;;;;;5027056;28;20037;-70
2023/12/09 13:04:03;;;;;;;27.97;12.13;;;;;;;;;;5017000;28;20030;-69
2023/12/09 13:06:29;;;;;;;25.50;12.77;;;;;;;;;;5016301;28;20026;-70
2023/12/09 13:08:54;;;;;;;27.00;13.53;;;;;;;;;;5017975;28;20029;-71
2023/12/09 13:11:22;;;;;;;27.73;12.53;;;;;;;;;;5021104;28;20058;-69
2023/12/09 13:13:47;;;;;;;25.43;11.40;;;;;;;;;;5012671;28;20030;-69
2023/12/09 13:16:16;;;;;;;27.93;12.37;;;;;;;;;;5014544;28;20041;-71
2023/12/09 13:18:41;;;;;;;21.90;9.93;;;;;;;;;;5012857;28;20040;-70
2023/12/09 13:21:10;;;;;;;24.17;13.00;;;;;;;;;;5025112;28;20108;-69
2023/12/09 13:23:36;;;;;;;23.57;11.37;;;;;;;;;;5033277;28;20072;-69
2023/12/09 13:26:02;;;;;;;24.20;11.07;;;;;;;;;;5032427;28;20539;-69
2023/12/09 13:28:28;;;;;;;22.30;10.60;;;;;;;;;;5033569;28;20029;-69
2023/12/09 13:30:54;;;;;;;20.70;9.40;;;;;;;;;;5032239;28;20503;-68
2023/12/09 13:33:21;;;;;;;20.60;9.97;;;;;;;;;;5024235;28;20033;-69
2023/12/09 13:35:48;;;;;;;19.23;10.80;;;;;;;;;;5013125;28;20037;-70
2023/12/09 13:38:15;;;;;;;25.73;11.10;;;;;;;;;;5014256;28;20061;-71
2023/12/09 13:40:45;;;;;;;20.40;10.33;;;;;;;;;;5015930;28;20032;-71
2023/12/09 13:43:17;;;;;;;20.73;10.90;;;;;;;;;;5015682;28;20034;-71
2023/12/09 13:45:43;;;;;;;27.40;11.53;;;;;;;;;;5029699;28;20621;-70
2023/12/09 13:48:09;;;;;;;26.33;10.90;;;;;;;;;;5035848;28;20032;-69
2023/12/09 13:50:39;;;;;;;23.10;11.77;;;;;;;;;;5035765;28;20025;-70
2023/12/09 13:53:06;;;;;;;29.60;12.57;;;;;;;;;;5033465;28;20091;-71
2023/12/09 13:55:32;;;;;;;28.57;12.73;;;;;;;;;;5016483;28;20037;-69
2023/12/09 13:57:57;;;;;;;30.37;14.03;;;;;;;;;;5016175;28;20041;-69
2023/12/09 14:00:24;;;;;;;29.50;12.90;;;;;;;;;;5016056;28;20026;-70
2023/12/09 14:02:50;;;;;;;32.90;14.43;;;;;;;;;;5033170;28;20037;-69
2023/12/09 14:05:16;;;;;;;29.30;14.93;;;;;;;;;;5049717;28;20405;-71
2023/12/09 14:07:45;;;;;;;32.27;14.57;;;;;;;;;;5035418;28;20049;-71
2023/12/09 14:10:12;;;;;;;33.37;14.13;;;;;;;;;;5029721;28;20040;-70
2023/12/09 14:12:47;;;;;;;36.30;14.93;;;;;;;;;;5034243;28;20033;-70